Time;durP1;ratioP1;P1;durP2;ratioP2;P2;SDS_P1;SDS_P2;PMS_P1;PMS_P2;Temp;Humidity;BMP_temperature;BMP_pressure;BME280_temperature;BME280_humidity;BME280_pressure;Samples;Min_cycle;Max_cycle;Signal;HPM_P1;HPM_P2
2021/12/17 00:01:14;;;;;;;8.57;2.00;;;25.00;60.90;;;;;;4162272;28;20064;-62
2021/12/17 00:03:20;;;;;;;5.47;2.15;;;25.00;60.80;;;;;;4162769;28;20086;-60
2021/12/17 00:05:42;;;;;;;3.80;1.48;;;25.00;61.00;;;;;;4160440;28;21329;-58
2021/12/17 00:07:44;;;;;;;8.70;2.10;;;25.10;61.80;;;;;;4144494;28;20084;-58
2021/12/17 00:09:48;;;;;;;5.27;2.07;;;25.10;61.60;;;;;;4160249;28;20112;-59
2021/12/17 00:11:50;;;;;;;6.82;2.22;;;25.10;61.50;;;;;;4163728;28;20702;-63
2021/12/17 00:13:55;;;;;;;5.88;2.45;;;25.10;61.20;;;;;;4165098;28;20048;-65
2021/12/17 00:15:57;;;;;;;15.30;3.50;;;25.10;61.20;;;;;;4160297;28;20091;-62
2021/12/17 00:18:07;;;;;;;21.73;2.90;;;25.10;61.60;;;;;;4160989;28;20220;-62
2021/12/17 00:20:36;;;;;;;8.10;2.47;;;25.10;61.40;;;;;;4159609;28;20392;-62
2021/12/17 00:48:38;;;;;;;5.35;1.65;;;25.30;61.60;;;;;;4168031;28;20056;-66
2021/12/17 00:52:45;;;;;;;3.92;1.63;;;25.30;61.70;;;;;;4163249;28;20777;-65
2021/12/17 00:54:47;;;;;;;1.92;1.17;;;25.30;61.60;;;;;;4163335;28;20518;-58
2021/12/17 00:56:54;;;;;;;4.43;1.50;;;25.30;61.70;;;;;;4157513;28;20361;-60
2021/12/17 00:58:57;;;;;;;4.45;1.67;;;25.40;61.50;;;;;;4169029;28;21025;-59
2021/12/17 01:02:12;;;;;;;4.18;1.40;;;25.40;60.90;;;;;;4122208;27;2562863;-59
2021/12/17 01:04:15;;;;;;;4.13;1.00;;;25.40;61.50;;;;;;4214987;27;20050;-60
2021/12/17 01:06:18;;;;;;;2.42;0.95;;;25.40;61.50;;;;;;4207731;27;20046;-60
2021/12/17 01:08:20;;;;;;;2.00;0.80;;;25.40;61.50;;;;;;4212812;27;20059;-58
2021/12/17 01:10:34;;;;;;;3.72;1.40;;;25.40;61.40;;;;;;4221294;27;20046;-67
2021/12/17 01:12:37;;;;;;;2.50;1.08;;;25.40;61.70;;;;;;4211274;27;20154;-63
2021/12/17 01:14:40;;;;;;;6.33;1.27;;;25.40;61.70;;;;;;4221296;27;20098;-63
2021/12/17 01:16:43;;;;;;;6.43;1.27;;;25.40;61.70;;;;;;4204188;27;20392;-65
2021/12/17 01:19:04;;;;;;;;;;;25.40;61.80;;;;;;4232453;27;20092;-67
2021/12/17 01:37:43;;;;;;;11.88;2.97;;;25.50;61.70;;;;;;4209731;27;20565;-57
2021/12/17 01:43:50;;;;;;;8.07;5.70;;;25.60;61.10;;;;;;4183365;28;20035;-62
2021/12/17 01:45:52;;;;;;;10.88;7.13;;;25.60;60.30;;;;;;4202852;27;20568;-62
2021/12/17 01:47:55;;;;;;;14.55;8.18;;;25.60;59.80;;;;;;4213117;27;20048;-62
2021/12/17 01:59:38;;;;;;;19.98;14.50;;;25.50;59.70;;;;;;4181051;27;20067;-63
2021/12/17 02:01:41;;;;;;;18.65;14.93;;;25.50;59.80;;;;;;4211669;27;20082;-63
2021/12/17 02:03:43;;;;;;;21.63;15.25;;;25.40;59.80;;;;;;4206162;27;20753;-63
2021/12/17 02:05:45;;;;;;;22.42;16.33;;;25.40;59.80;;;;;;4178278;27;20117;-62
2021/12/17 02:07:51;;;;;;;21.05;14.73;;;25.50;59.90;;;;;;4201818;27;20876;-64
2021/12/17 02:12:32;;;;;;;19.27;14.85;;;25.50;59.90;;;;;;4197178;27;20056;-64
2021/12/17 02:19:43;;;;;;;19.52;14.98;;;25.50;59.80;;;;;;4181485;28;20127;-61
2021/12/17 02:22:19;;;;;;;19.80;14.52;;;25.50;59.70;;;;;;4189558;27;20113;-63
2021/12/17 02:29:01;;;;;;;17.92;13.68;;;25.50;59.70;;;;;;4187049;27;20047;-63
2021/12/17 02:31:36;;;;;;;17.38;13.15;;;25.50;59.70;;;;;;4187734;27;20125;-62
2021/12/17 02:33:32;;;;;;;20.90;12.90;;;25.50;60.30;;;;;;4194854;27;20075;-59
2021/12/17 02:35:40;;;;;;;16.25;12.25;;;25.50;60.20;;;;;;4170087;28;20040;-59
2021/12/17 02:37:45;;;;;;;16.40;11.48;;;25.50;60.20;;;;;;4189268;27;20131;-59
2021/12/17 02:46:39;;;;;;;11.27;8.07;;;25.60;60.80;;;;;;4197147;27;20047;-59
2021/12/17 02:48:42;;;;;;;11.38;8.45;;;25.60;60.80;;;;;;4186245;27;20699;-59
2021/12/17 02:50:47;;;;;;;11.13;8.35;;;25.60;60.90;;;;;;4188806;27;20052;-59
2021/12/17 02:52:53;;;;;;;12.45;8.43;;;25.60;60.80;;;;;;4192008;27;20047;-62
2021/12/17 02:54:58;;;;;;;10.02;7.05;;;25.70;60.80;;;;;;4198545;27;20100;-60
2021/12/17 02:57:01;;;;;;;10.55;6.50;;;25.70;60.80;;;;;;4191602;27;22132;-60
2021/12/17 02:59:04;;;;;;;9.02;6.47;;;25.70;60.90;;;;;;4186045;27;20044;-59
2021/12/17 03:01:10;;;;;;;12.65;6.95;;;25.70;60.90;;;;;;4154451;28;20055;-59
2021/12/17 03:03:15;;;;;;;10.98;6.63;;;25.70;61.10;;;;;;4194338;27;20202;-61
2021/12/17 03:05:17;;;;;;;8.90;5.85;;;25.80;61.20;;;;;;4178381;28;20743;-61
2021/12/17 03:07:20;;;;;;;9.88;5.85;;;25.80;61.20;;;;;;4184513;27;20085;-60
2021/12/17 03:09:36;;;;;;;8.27;5.70;;;25.80;61.20;;;;;;4187656;27;20175;-63
2021/12/17 03:11:39;;;;;;;11.55;5.63;;;25.80;61.10;;;;;;4186028;27;20444;-60
2021/12/17 03:13:43;;;;;;;9.63;4.60;;;25.80;61.10;;;;;;4191838;27;20641;-59
2021/12/17 03:15:53;;;;;;;10.70;4.88;;;25.80;61.00;;;;;;4195881;27;20054;-60
2021/12/17 03:24:51;;;;;;;9.23;4.15;;;25.90;61.10;;;;;;4185930;27;20047;-61
2021/12/17 03:26:55;;;;;;;5.50;3.92;;;25.90;61.20;;;;;;4190164;27;20078;-62
2021/12/17 03:29:04;;;;;;;19.95;4.18;;;25.90;61.10;;;;;;4196401;27;20617;-62
2021/12/17 03:31:07;;;;;;;6.78;3.80;;;26.00;61.10;;;;;;4193300;27;21359;-61
2021/12/17 03:33:09;;;;;;;6.40;3.00;;;25.90;61.00;;;;;;4187148;27;20180;-63
2021/12/17 03:35:11;;;;;;;8.50;3.00;;;26.00;61.00;;;;;;4189085;27;20048;-63
2021/12/17 03:37:14;;;;;;;7.28;3.20;;;26.00;61.00;;;;;;4195249;27;20051;-59
2021/12/17 03:39:16;;;;;;;7.13;3.00;;;26.00;61.10;;;;;;4186217;27;20058;-61
2021/12/17 03:41:22;;;;;;;5.45;2.88;;;26.00;61.10;;;;;;4186382;27;20055;-59
2021/12/17 03:43:30;;;;;;;6.88;3.05;;;26.00;61.10;;;;;;4169010;28;20531;-63
2021/12/17 03:45:32;;;;;;;5.88;2.60;;;26.10;61.00;;;;;;4171892;28;20117;-62
2021/12/17 03:47:34;;;;;;;4.05;2.85;;;26.10;61.10;;;;;;4193830;27;20786;-59
2021/12/17 03:49:37;;;;;;;7.47;2.70;;;26.10;61.10;;;;;;4185904;27;20097;-61
2021/12/17 03:51:49;;;;;;;;;;;26.10;61.20;;;;;;4166456;28;20795;-62
2021/12/17 03:53:54;;;;;;;5.22;2.63;;;26.10;61.10;;;;;;4167717;28;19927;-58
2021/12/17 03:55:56;;;;;;;4.40;2.40;;;26.10;61.20;;;;;;4175495;28;20384;-61
2021/12/17 03:57:59;;;;;;;6.50;2.70;;;26.10;61.30;;;;;;4173972;27;20783;-60
2021/12/17 04:02:14;;;;;;;5.57;2.47;;;26.20;60.80;;;;;;4192225;27;20127;-59
2021/12/17 04:04:16;;;;;;;4.72;2.17;;;26.30;61.30;;;;;;4181831;28;20132;-62
2021/12/17 04:06:18;;;;;;;9.27;2.13;;;26.30;61.30;;;;;;4175486;28;20079;-63
2021/12/17 04:08:20;;;;;;;3.58;1.63;;;26.30;61.60;;;;;;4157108;28;20052;-62
2021/12/17 04:10:25;;;;;;;8.55;2.40;;;26.40;61.70;;;;;;4176452;28;20450;-61
2021/12/17 04:15:00;;;;;;;3.10;1.70;;;26.50;61.60;;;;;;4138995;28;20180;-63
2021/12/17 04:17:05;;;;;;;5.47;2.00;;;26.50;61.50;;;;;;4178590;28;20047;-61
2021/12/17 04:19:07;;;;;;;2.55;1.55;;;26.60;61.50;;;;;;4160056;28;20052;-62
2021/12/17 04:21:14;;;;;;;3.28;1.50;;;26.60;61.50;;;;;;4144201;28;20135;-63
2021/12/17 04:23:16;;;;;;;4.90;1.92;;;26.60;61.30;;;;;;4163425;28;20055;-62
2021/12/17 04:25:18;;;;;;;4.43;1.67;;;26.70;61.40;;;;;;4181133;28;20530;-60
2021/12/17 04:27:20;;;;;;;3.00;1.53;;;26.80;61.20;;;;;;4174355;28;20067;-63
2021/12/17 04:29:24;;;;;;;2.83;1.73;;;26.80;61.30;;;;;;4189039;28;20226;-63
2021/12/17 04:31:28;;;;;;;3.10;1.65;;;26.90;61.20;;;;;;4183898;28;21963;-64
2021/12/17 04:33:30;;;;;;;2.45;1.40;;;26.90;61.20;;;;;;4179326;28;20058;-62
2021/12/17 04:35:33;;;;;;;2.85;1.33;;;27.00;61.20;;;;;;4164646;28;20075;-63
2021/12/17 04:37:35;;;;;;;2.40;1.50;;;27.00;61.30;;;;;;4171207;28;20564;-62
2021/12/17 04:39:37;;;;;;;5.22;1.60;;;27.10;61.10;;;;;;4142228;28;20629;-62
2021/12/17 04:41:57;;;;;;;2.78;1.60;;;27.10;61.10;;;;;;4126182;28;20537;-62
2021/12/17 04:46:21;;;;;;;2.58;1.35;;;27.20;61.10;;;;;;4135858;28;20626;-62
2021/12/17 04:57:47;;;;;;;3.55;1.35;;;27.50;60.60;;;;;;4158348;28;20733;-65
2021/12/17 04:59:49;;;;;;;3.45;1.73;;;27.60;60.40;;;;;;4160005;28;20521;-66
2021/12/17 05:01:52;;;;;;;1.53;1.20;;;27.60;60.30;;;;;;4136229;28;20088;-63
2021/12/17 05:03:54;;;;;;;4.53;1.63;;;27.70;60.30;;;;;;4137572;28;21873;-64
2021/12/17 05:05:56;;;;;;;2.75;1.50;;;27.80;60.20;;;;;;4144557;28;20064;-65
2021/12/17 05:08:09;;;;;;;3.53;2.10;;;27.80;60.00;;;;;;4144089;28;20169;-70
2021/12/17 05:19:44;;;;;;;2.90;1.90;;;28.10;58.90;;;;;;4137757;28;20056;-64
2021/12/17 05:21:47;;;;;;;2.83;1.65;;;28.20;59.00;;;;;;4138765;28;20079;-63
2021/12/17 05:23:51;;;;;;;3.43;1.87;;;28.30;59.00;;;;;;4147570;28;20143;-62
2021/12/17 05:25:55;;;;;;;4.00;2.10;;;28.40;59.10;;;;;;4142398;28;20053;-63
2021/12/17 05:28:02;;;;;;;4.15;1.90;;;28.40;59.00;;;;;;4134770;28;20053;-63
2021/12/17 05:30:04;;;;;;;4.60;1.73;;;28.40;59.00;;;;;;4114545;28;20049;-64
2021/12/17 05:32:09;;;;;;;1.88;1.38;;;28.40;59.20;;;;;;4131634;28;20114;-65
2021/12/17 05:34:11;;;;;;;3.33;1.65;;;28.40;59.20;;;;;;4140433;28;20055;-66
2021/12/17 05:36:13;;;;;;;4.00;1.50;;;28.40;59.80;;;;;;4134428;28;21547;-63
2021/12/17 05:38:17;;;;;;;2.38;1.55;;;28.40;60.00;;;;;;4129124;28;20052;-59
2021/12/17 05:40:21;;;;;;;2.65;1.73;;;28.40;59.70;;;;;;4136266;28;20059;-63
2021/12/17 05:42:23;;;;;;;6.13;1.60;;;28.50;59.40;;;;;;4135705;28;20841;-67
2021/12/17 05:44:25;;;;;;;2.63;1.70;;;28.50;59.30;;;;;;4131496;28;20067;-67
2021/12/17 05:46:51;;;;;;;5.43;1.90;;;28.60;59.20;;;;;;4128638;28;20469;-65
2021/12/17 05:48:53;;;;;;;5.10;1.80;;;28.60;59.00;;;;;;4132228;28;20053;-65
2021/12/17 05:50:57;;;;;;;4.97;1.50;;;28.70;59.00;;;;;;4128270;28;20144;-63
2021/12/17 05:53:00;;;;;;;3.17;1.30;;;28.70;58.90;;;;;;4115018;28;20148;-65
2021/12/17 05:55:02;;;;;;;5.10;1.38;;;28.70;58.90;;;;;;4138512;28;20132;-63
2021/12/17 05:57:05;;;;;;;2.25;1.20;;;28.80;58.80;;;;;;4131719;28;20049;-65
2021/12/17 05:59:07;;;;;;;4.28;1.30;;;28.80;58.70;;;;;;4128492;28;20069;-65
2021/12/17 06:01:10;;;;;;;2.45;1.17;;;28.90;58.70;;;;;;4146916;28;20151;-63
2021/12/17 06:03:12;;;;;;;2.65;1.38;;;28.90;58.60;;;;;;4147009;28;21251;-65
2021/12/17 06:05:15;;;;;;;2.25;1.10;;;29.00;58.60;;;;;;4147496;28;20067;-60
2021/12/17 06:07:27;;;;;;;2.58;1.08;;;29.00;58.50;;;;;;4148008;28;20080;-60
2021/12/17 06:09:30;;;;;;;8.50;1.85;;;29.10;58.50;;;;;;4121322;28;20155;-60
2021/12/17 06:11:33;;;;;;;2.33;1.08;;;29.10;58.40;;;;;;4151529;28;20723;-59
2021/12/17 06:13:36;;;;;;;3.50;0.98;;;29.10;58.30;;;;;;4128356;28;21467;-60
2021/12/17 06:15:38;;;;;;;3.27;1.53;;;29.20;58.40;;;;;;4127063;28;20148;-62
2021/12/17 06:17:41;;;;;;;1.52;1.17;;;29.20;56.70;;;;;;4152941;28;20052;-61
2021/12/17 06:19:43;;;;;;;3.35;1.60;;;29.10;54.10;;;;;;4134638;28;20815;-60
2021/12/17 06:21:47;;;;;;;2.77;1.60;;;28.90;52.50;;;;;;4127254;28;20126;-63
2021/12/17 06:23:49;;;;;;;2.70;1.90;;;28.70;51.40;;;;;;4128216;28;20320;-63
2021/12/17 06:25:52;;;;;;;2.50;1.63;;;28.60;50.50;;;;;;4138859;28;20056;-61
2021/12/17 06:27:54;;;;;;;1.58;1.30;;;28.40;50.00;;;;;;4131782;28;20578;-61
2021/12/17 06:29:57;;;;;;;2.20;1.57;;;28.30;49.50;;;;;;4132084;28;20528;-66
2021/12/17 06:31:59;;;;;;;2.50;1.70;;;28.10;49.80;;;;;;4117023;28;20048;-61
2021/12/17 06:34:02;;;;;;;2.70;1.53;;;28.00;49.40;;;;;;4138996;28;20051;-61
2021/12/17 06:36:04;;;;;;;2.10;1.40;;;27.80;48.50;;;;;;4131052;28;20060;-60
2021/12/17 06:38:06;;;;;;;2.00;1.50;;;27.70;48.60;;;;;;4146865;28;20048;-62
2021/12/17 06:40:10;;;;;;;1.70;1.40;;;27.50;48.50;;;;;;4139693;28;20052;-62
2021/12/17 06:42:13;;;;;;;1.77;1.23;;;27.40;48.40;;;;;;4130944;28;20410;-62
2021/12/17 06:44:19;;;;;;;;;;;27.30;49.10;;;;;;4128887;28;20112;-61
2021/12/17 06:47:07;;;;;;;2.33;1.52;;;27.20;48.40;;;;;;4124807;28;20591;-60
2021/12/17 06:48:56;;;;;;;2.10;1.45;;;27.10;48.40;;;;;;4127125;28;20175;-59
2021/12/17 06:56:43;;;;;;;2.55;1.50;;;26.70;48.40;;;;;;4131016;28;20036;-60
2021/12/17 06:58:43;;;;;;;1.85;1.30;;;26.60;48.60;;;;;;4148732;28;20117;-57
2021/12/17 07:07:37;;;;;;;2.33;1.40;;;26.20;48.80;;;;;;4151326;28;20063;-59
2021/12/17 07:21:07;;;;;;;7.20;2.80;;;25.60;49.10;;;;;;4161406;28;20041;-59
2021/12/17 07:23:16;;;;;;;5.50;2.47;;;25.50;49.10;;;;;;4147843;28;20044;-60
2021/12/17 07:33:35;;;;;;;5.32;2.35;;;25.20;49.30;;;;;;4119232;28;20479;-59
2021/12/17 07:39:13;;;;;;;3.92;2.15;;;24.90;49.60;;;;;;4129786;28;20080;-60
2021/12/17 07:41:17;;;;;;;3.50;2.05;;;24.80;49.90;;;;;;4130519;28;20084;-59
2021/12/17 07:43:27;;;;;;;3.33;1.83;;;24.70;50.00;;;;;;4142630;28;20055;-59
2021/12/17 07:45:29;;;;;;;2.78;1.58;;;24.60;50.10;;;;;;4140834;28;20057;-58
2021/12/17 07:47:31;;;;;;;2.72;1.60;;;24.60;50.70;;;;;;4112995;28;20171;-58
2021/12/17 07:49:33;;;;;;;4.57;1.90;;;24.60;51.30;;;;;;4131468;28;20127;-58
2021/12/17 07:51:36;;;;;;;2.88;1.55;;;24.60;51.50;;;;;;4136530;28;20048;-58
2021/12/17 07:53:42;;;;;;;2.10;1.50;;;24.70;51.90;;;;;;4141350;28;21255;-58
2021/12/17 07:55:44;;;;;;;2.53;1.27;;;24.80;52.20;;;;;;4133399;28;20560;-58
2021/12/17 07:57:46;;;;;;;2.28;1.30;;;24.80;52.20;;;;;;4132846;28;20751;-57
2021/12/17 07:59:49;;;;;;;2.03;1.38;;;24.90;52.50;;;;;;4140448;28;20413;-58
2021/12/17 08:01:51;;;;;;;3.08;1.42;;;24.90;52.70;;;;;;4135058;28;20583;-58
2021/12/17 08:03:54;;;;;;;2.58;1.08;;;25.10;52.90;;;;;;4130719;28;20053;-59
2021/12/17 08:05:56;;;;;;;2.75;1.10;;;25.10;53.20;;;;;;4132444;28;20055;-60
2021/12/17 08:07:58;;;;;;;1.65;1.20;;;25.20;53.90;;;;;;4138763;28;20060;-59
2021/12/17 08:10:01;;;;;;;2.50;1.02;;;25.20;54.30;;;;;;4127179;28;21285;-59
2021/12/17 08:12:05;;;;;;;2.92;1.17;;;25.20;54.50;;;;;;4120857;28;20045;-61
2021/12/17 08:14:12;;;;;;;2.45;1.05;;;25.30;54.80;;;;;;4122069;28;20056;-60
2021/12/17 08:16:28;;;;;;;1.73;1.08;;;25.40;55.20;;;;;;4124400;28;20056;-59
2021/12/17 08:25:15;;;;;;;1.52;0.98;;;25.70;56.00;;;;;;4117686;28;20139;-59
2021/12/17 08:29:53;;;;;;;1.92;0.80;;;25.80;56.30;;;;;;4115461;28;20116;-59
2021/12/17 08:31:56;;;;;;;6.53;1.30;;;25.80;56.30;;;;;;4112805;28;20055;-60
2021/12/17 08:33:58;;;;;;;7.93;1.33;;;25.90;56.60;;;;;;4098832;28;20495;-59
2021/12/17 08:36:00;;;;;;;1.85;1.00;;;25.90;56.70;;;;;;4127231;28;20045;-60
2021/12/17 08:38:05;;;;;;;1.63;0.88;;;26.00;56.80;;;;;;4116108;28;20056;-59
2021/12/17 08:40:10;;;;;;;2.95;1.13;;;26.00;56.90;;;;;;4113564;28;20084;-60
2021/12/17 08:42:12;;;;;;;2.53;1.02;;;26.10;57.00;;;;;;4115382;28;20048;-60
2021/12/17 08:44:15;;;;;;;3.60;1.02;;;26.10;57.00;;;;;;4124968;28;20064;-59
2021/12/17 08:46:17;;;;;;;;;;;26.10;57.20;;;;;;4101180;28;20053;-61
2021/12/17 08:48:20;;;;;;;1.52;0.65;;;26.20;57.30;;;;;;4118844;28;19929;-61
2021/12/17 08:50:24;;;;;;;3.50;0.95;;;26.20;57.50;;;;;;4127372;28;20107;-61
2021/12/17 08:52:26;;;;;;;1.48;1.00;;;26.30;57.70;;;;;;4109652;28;20061;-62
2021/12/17 08:54:29;;;;;;;1.90;1.02;;;26.30;57.70;;;;;;4120298;28;20115;-60
2021/12/17 08:56:33;;;;;;;1.73;0.80;;;26.40;57.80;;;;;;4118642;28;20053;-61
2021/12/17 08:58:36;;;;;;;2.00;0.70;;;26.40;57.90;;;;;;4128497;28;20053;-62
2021/12/17 09:00:38;;;;;;;2.80;1.00;;;26.40;58.50;;;;;;4122967;28;20191;-61
2021/12/17 09:02:41;;;;;;;4.47;0.90;;;26.50;57.90;;;;;;4112020;28;20182;-60
2021/12/17 09:04:44;;;;;;;3.55;1.00;;;26.50;58.00;;;;;;4119223;28;20061;-62
2021/12/17 09:06:46;;;;;;;2.60;0.88;;;26.50;58.00;;;;;;4129374;28;20049;-58
2021/12/17 09:08:54;;;;;;;6.78;1.40;;;26.60;58.10;;;;;;4116626;28;20531;-59
2021/12/17 09:10:56;;;;;;;1.63;0.80;;;26.60;57.90;;;;;;4113649;28;20067;-60
2021/12/17 09:12:59;;;;;;;3.92;0.68;;;26.60;57.80;;;;;;4117481;28;20049;-60
2021/12/17 09:15:01;;;;;;;1.20;0.77;;;26.60;57.80;;;;;;4125780;28;20487;-59
2021/12/17 09:17:03;;;;;;;1.65;0.98;;;26.70;57.80;;;;;;4117359;28;20552;-57
2021/12/17 09:19:07;;;;;;;1.13;0.82;;;26.70;57.70;;;;;;4117971;28;20294;-57
2021/12/17 09:21:09;;;;;;;2.88;0.70;;;26.80;57.80;;;;;;4123101;28;20137;-58
2021/12/17 09:23:12;;;;;;;;;;;26.80;57.70;;;;;;4121052;28;20080;-57
2021/12/17 09:25:14;;;;;;;2.00;0.73;;;26.80;57.70;;;;;;4122988;28;20051;-56
2021/12/17 09:27:17;;;;;;;3.15;1.10;;;26.80;57.70;;;;;;4122365;28;20049;-59
2021/12/17 09:29:19;;;;;;;3.97;1.13;;;26.80;57.70;;;;;;4133805;28;20045;-59
2021/12/17 09:31:21;;;;;;;4.90;0.93;;;26.90;57.80;;;;;;4124052;28;20053;-59
2021/12/17 09:33:25;;;;;;;1.47;0.80;;;26.90;57.80;;;;;;4129221;28;20368;-58
2021/12/17 09:35:27;;;;;;;1.55;0.80;;;26.90;57.90;;;;;;4130781;28;20691;-58
2021/12/17 09:37:29;;;;;;;1.67;0.77;;;26.90;57.90;;;;;;4122520;28;20057;-58
2021/12/17 09:39:32;;;;;;;0.95;0.57;;;26.90;57.80;;;;;;4118905;28;20079;-58
2021/12/17 09:41:34;;;;;;;3.23;1.17;;;27.00;57.90;;;;;;4122259;28;20511;-59
2021/12/17 09:43:37;;;;;;;2.30;1.00;;;27.00;58.00;;;;;;4128115;28;21222;-58
2021/12/17 09:45:39;;;;;;;1.65;0.90;;;27.00;58.20;;;;;;4120095;28;20118;-57
2021/12/17 09:47:42;;;;;;;3.35;1.00;;;27.00;58.30;;;;;;4120028;28;20191;-58
2021/12/17 09:49:45;;;;;;;7.57;1.45;;;27.10;58.50;;;;;;4126685;28;20057;-58
2021/12/17 09:51:48;;;;;;;2.75;0.82;;;27.10;58.70;;;;;;4125190;28;20052;-58
2021/12/17 09:53:50;;;;;;;1.55;0.80;;;27.10;58.40;;;;;;4116411;28;20172;-58
2021/12/17 09:55:52;;;;;;;4.60;1.00;;;27.10;58.60;;;;;;4120194;28;20048;-59
2021/12/17 09:57:54;;;;;;;3.70;1.13;;;27.10;58.60;;;;;;4124928;28;21694;-58
2021/12/17 09:59:56;;;;;;;3.10;0.80;;;27.20;58.70;;;;;;4113285;28;20045;-58
2021/12/17 10:02:12;;;;;;;4.43;1.23;;;27.20;58.40;;;;;;4156145;27;20456;-58
2021/12/17 10:04:27;;;;;;;0.85;0.70;;;27.20;58.90;;;;;;4150697;28;20059;-58
2021/12/17 10:06:29;;;;;;;2.58;0.73;;;27.20;58.90;;;;;;4149022;28;20171;-59
2021/12/17 10:08:31;;;;;;;2.73;0.93;;;27.20;58.80;;;;;;4142439;28;20048;-58
2021/12/17 10:10:42;;;;;;;2.10;0.80;;;27.20;59.00;;;;;;4157096;28;20348;-57
2021/12/17 10:12:46;;;;;;;1.25;0.75;;;27.20;59.10;;;;;;4159963;28;20040;-57
2021/12/17 10:15:11;;;;;;;7.50;1.10;;;27.30;59.20;;;;;;4149907;28;20808;-58
2021/12/17 10:17:14;;;;;;;1.10;0.70;;;27.30;59.30;;;;;;4157753;28;20048;-58
2021/12/17 10:19:43;;;;;;;1.13;0.70;;;27.30;59.70;;;;;;4142187;28;20213;-57
2021/12/17 10:21:46;;;;;;;1.52;0.80;;;27.30;59.00;;;;;;4146768;28;20896;-58
2021/12/17 10:23:48;;;;;;;;;;;27.30;59.00;;;;;;4159287;28;20127;-58
2021/12/17 10:25:50;;;;;;;5.93;0.98;;;27.30;59.00;;;;;;4149372;28;19928;-57
2021/12/17 10:27:59;;;;;;;2.55;0.93;;;27.30;59.00;;;;;;4150680;28;20059;-57
2021/12/17 10:30:15;;;;;;;2.65;0.90;;;27.30;59.10;;;;;;4141288;28;20059;-58
2021/12/17 10:32:20;;;;;;;3.88;0.77;;;27.20;59.00;;;;;;4138205;28;20056;-57
2021/12/17 10:34:24;;;;;;;2.65;0.70;;;27.20;59.10;;;;;;4144718;28;20795;-57
2021/12/17 10:36:42;;;;;;;3.63;1.00;;;27.20;59.10;;;;;;4152765;28;20056;-55
2021/12/17 10:38:47;;;;;;;3.28;0.60;;;27.20;59.20;;;;;;4146957;28;20044;-55
2021/12/17 10:41:09;;;;;;;2.05;0.93;;;27.20;59.20;;;;;;4156515;28;20052;-59
2021/12/17 10:46:21;;;;;;;3.15;0.80;;;27.20;59.30;;;;;;4139791;28;20052;-59
2021/12/17 10:48:31;;;;;;;2.03;0.90;;;27.20;59.20;;;;;;4148988;28;20063;-59
2021/12/17 10:50:33;;;;;;;1.60;0.70;;;27.20;59.20;;;;;;4146671;28;22062;-60
2021/12/17 10:52:41;;;;;;;1.08;0.73;;;27.20;59.20;;;;;;4146950;28;20487;-57
2021/12/17 10:54:44;;;;;;;2.80;0.95;;;27.30;59.30;;;;;;4147941;28;20088;-61
2021/12/17 10:56:50;;;;;;;3.70;0.70;;;27.30;59.30;;;;;;4159794;28;20056;-60
2021/12/17 10:58:59;;;;;;;2.70;0.90;;;27.30;59.30;;;;;;4154904;28;20121;-60
2021/12/17 11:01:07;;;;;;;1.17;0.80;;;27.30;59.30;;;;;;4147937;28;20088;-59
2021/12/17 11:03:09;;;;;;;4.90;0.70;;;27.20;59.30;;;;;;4146987;28;20040;-58
2021/12/17 11:05:13;;;;;;;1.75;0.80;;;27.30;59.50;;;;;;4147643;28;20085;-57
2021/12/17 11:07:19;;;;;;;2.50;0.70;;;27.30;59.40;;;;;;4154614;28;20056;-58
2021/12/17 11:09:41;;;;;;;2.10;0.93;;;27.30;59.40;;;;;;4156490;28;20048;-58
2021/12/17 11:11:43;;;;;;;2.03;0.60;;;27.30;59.40;;;;;;4150760;28;20056;-59
2021/12/17 11:13:57;;;;;;;2.30;0.77;;;27.30;59.40;;;;;;4146700;28;20044;-57
2021/12/17 11:16:00;;;;;;;2.35;0.60;;;27.30;59.30;;;;;;4151055;28;20204;-56
2021/12/17 11:18:05;;;;;;;0.95;0.73;;;27.30;59.40;;;;;;4139323;28;20985;-55
2021/12/17 11:20:10;;;;;;;0.98;0.60;;;27.30;59.40;;;;;;4141490;28;20052;-57
2021/12/17 11:22:13;;;;;;;1.38;0.70;;;27.30;59.30;;;;;;4139844;28;20053;-57
2021/12/17 11:24:15;;;;;;;2.30;0.70;;;27.30;59.40;;;;;;4152555;28;20056;-57
2021/12/17 11:26:17;;;;;;;0.93;0.60;;;27.30;59.40;;;;;;4141134;28;20427;-57
2021/12/17 11:28:20;;;;;;;1.25;0.70;;;27.30;59.40;;;;;;4139997;28;20048;-58
2021/12/17 11:30:25;;;;;;;1.83;0.80;;;27.30;59.40;;;;;;4141963;28;20586;-59
2021/12/17 11:32:27;;;;;;;2.38;0.77;;;27.30;59.40;;;;;;4149184;28;20052;-60
2021/12/17 11:34:32;;;;;;;1.30;0.60;;;27.30;59.40;;;;;;4135270;28;20071;-59
2021/12/17 11:36:34;;;;;;;1.38;0.73;;;27.30;59.50;;;;;;4139149;28;20056;-59
2021/12/17 11:38:48;;;;;;;2.63;0.88;;;27.30;59.40;;;;;;4141714;28;20853;-60
2021/12/17 11:40:53;;;;;;;;;;;27.30;59.40;;;;;;4145690;28;20567;-59
2021/12/17 11:43:09;;;;;;;2.40;0.82;;;27.30;59.40;;;;;;4145857;28;19935;-59
2021/12/17 11:45:23;;;;;;;1.45;0.77;;;27.30;59.40;;;;;;4145557;28;20712;-59
2021/12/17 11:47:34;;;;;;;1.80;0.75;;;27.30;59.40;;;;;;4137053;28;20843;-59
2021/12/17 11:49:49;;;;;;;6.13;0.95;;;27.30;59.40;;;;;;4145264;28;20052;-59
2021/12/17 11:51:55;;;;;;;3.03;0.90;;;27.30;59.10;;;;;;4138699;28;20052;-60
2021/12/17 11:54:08;;;;;;;1.83;0.80;;;27.30;59.50;;;;;;4150186;28;20048;-59
2021/12/17 11:56:11;;;;;;;1.73;0.60;;;27.30;59.40;;;;;;4147206;28;20956;-62
2021/12/17 11:58:15;;;;;;;1.97;0.83;;;27.30;59.40;;;;;;4138753;28;20657;-62
2021/12/17 12:00:24;;;;;;;3.17;1.00;;;27.30;59.40;;;;;;4134266;28;20493;-59
2021/12/17 12:02:27;;;;;;;2.35;0.85;;;27.40;59.70;;;;;;4138197;28;20513;-61
2021/12/17 12:04:34;;;;;;;1.80;0.98;;;27.30;59.60;;;;;;4141945;28;20437;-60
2021/12/17 12:06:36;;;;;;;2.40;1.00;;;27.30;59.50;;;;;;4146442;28;20063;-61
2021/12/17 12:08:47;;;;;;;1.52;0.65;;;27.30;59.60;;;;;;4139376;28;21812;-61
2021/12/17 12:11:14;;;;;;;0.63;0.60;;;27.30;59.40;;;;;;4138470;28;20051;-58
2021/12/17 12:13:37;;;;;;;2.45;0.80;;;27.30;59.50;;;;;;4144193;28;20139;-58
2021/12/17 12:15:40;;;;;;;2.72;0.68;;;27.30;59.50;;;;;;4137568;28;20044;-58
2021/12/17 12:18:05;;;;;;;2.33;0.93;;;27.30;59.50;;;;;;4140492;28;20054;-60
2021/12/17 12:20:08;;;;;;;1.75;0.73;;;27.30;59.60;;;;;;4135560;28;20052;-60
2021/12/17 12:22:10;;;;;;;1.30;0.75;;;27.30;60.10;;;;;;4137899;28;20048;-60
2021/12/17 12:24:13;;;;;;;4.68;0.70;;;27.30;59.50;;;;;;4143777;28;20076;-60
2021/12/17 12:26:34;;;;;;;1.92;0.77;;;27.30;59.60;;;;;;4143372;28;20143;-60
2021/12/17 12:28:48;;;;;;;1.52;0.70;;;27.30;59.50;;;;;;4145809;28;20056;-59
2021/12/17 12:30:53;;;;;;;2.08;0.80;;;27.30;59.50;;;;;;4145927;28;20068;-58
2021/12/17 12:33:14;;;;;;;1.33;0.82;;;27.30;59.50;;;;;;4141902;28;20469;-61
2021/12/17 12:35:16;;;;;;;1.45;0.70;;;27.30;59.60;;;;;;4143721;28;20053;-58
2021/12/17 12:37:19;;;;;;;2.53;0.93;;;27.30;59.60;;;;;;4142411;28;20723;-59
2021/12/17 12:39:32;;;;;;;3.50;0.90;;;27.30;59.60;;;;;;4136918;28;20045;-59
2021/12/17 12:41:46;;;;;;;2.35;0.70;;;27.30;59.60;;;;;;4136349;28;20079;-59
2021/12/17 12:43:49;;;;;;;1.00;0.70;;;27.30;59.60;;;;;;4138047;28;20111;-58
2021/12/17 12:45:51;;;;;;;1.67;0.77;;;27.30;59.60;;;;;;4136059;28;20060;-58
2021/12/17 12:47:57;;;;;;;1.93;0.83;;;27.30;59.70;;;;;;4147375;28;20044;-60
2021/12/17 12:50:08;;;;;;;2.03;0.88;;;27.30;60.20;;;;;;4149041;28;20052;-58
2021/12/17 12:52:32;;;;;;;2.72;0.93;;;27.30;59.70;;;;;;4144785;28;20067;-61
2021/12/17 12:54:34;;;;;;;2.20;0.80;;;27.30;59.70;;;;;;4140643;28;20075;-60
2021/12/17 12:56:39;;;;;;;4.22;0.80;;;27.30;59.70;;;;;;4146928;28;20053;-60
2021/12/17 12:58:48;;;;;;;3.08;0.82;;;27.30;59.80;;;;;;4121815;28;21109;-59
2021/12/17 13:02:13;;;;;;;2.90;0.82;;;27.30;59.10;;;;;;4137157;27;20456;-59
2021/12/17 13:04:16;;;;;;;3.25;1.42;;;27.30;59.70;;;;;;4152989;28;20656;-59
2021/12/17 13:06:22;;;;;;;4.30;1.13;;;27.30;59.60;;;;;;4130081;28;21165;-62
2021/12/17 13:08:25;;;;;;;3.63;1.08;;;27.30;59.60;;;;;;4131919;28;20060;-61
2021/12/17 13:10:32;;;;;;;3.03;0.82;;;27.30;59.60;;;;;;4141140;28;20053;-62
2021/12/17 13:12:37;;;;;;;1.42;0.70;;;27.30;59.70;;;;;;4142000;28;20136;-61
2021/12/17 13:14:43;;;;;;;3.03;0.95;;;27.30;59.70;;;;;;4119139;28;21631;-61
2021/12/17 13:17:06;;;;;;;2.00;0.90;;;27.30;59.70;;;;;;4131787;28;20053;-59
2021/12/17 13:23:47;;;;;;;3.10;1.10;;;27.30;59.70;;;;;;4139529;28;20056;-57
2021/12/17 13:26:05;;;;;;;1.83;0.95;;;27.30;59.70;;;;;;4141908;28;20053;-58
2021/12/17 13:28:07;;;;;;;2.20;1.00;;;27.30;59.80;;;;;;4134322;28;20463;-58
2021/12/17 13:30:10;;;;;;;2.58;1.02;;;27.30;59.70;;;;;;4142159;28;21192;-57
2021/12/17 13:32:14;;;;;;;1.85;0.77;;;27.30;59.70;;;;;;4157607;28;20068;-58
2021/12/17 13:34:19;;;;;;;2.97;0.90;;;27.30;59.80;;;;;;4136586;28;20052;-57
2021/12/17 13:36:21;;;;;;;2.00;0.85;;;27.30;59.70;;;;;;4144018;28;20069;-60
2021/12/17 13:38:32;;;;;;;4.50;1.20;;;27.30;59.70;;;;;;4149220;28;20062;-59
2021/12/17 13:40:36;;;;;;;1.33;0.65;;;27.30;59.70;;;;;;4151336;28;20056;-57